createdAt,value
2023-05-01T00:01:10.348Z,83.8
2023-05-01T00:11:10.328Z,83.5
2023-05-01T00:21:10.316Z,84.3
2023-05-01T00:31:10.529Z,83.9
2023-05-01T00:41:10.366Z,84.9
2023-05-01T00:51:10.480Z,85.6
2023-05-01T01:01:10.466Z,84.9
2023-05-01T01:11:10.689Z,85.0
2023-05-01T01:21:10.452Z,82.2
2023-05-01T01:31:10.866Z,78.6
2023-05-01T01:41:10.439Z,77.1
2023-05-01T01:51:10.432Z,76.4
2023-05-01T02:01:10.480Z,76.3
2023-05-01T02:11:10.490Z,76.6
2023-05-01T02:21:10.862Z,76.5
2023-05-01T02:31:10.699Z,77.2
2023-05-01T02:41:10.521Z,77.6
2023-05-01T02:51:10.461Z,79.1
2023-05-01T03:01:10.539Z,80.1
2023-05-01T03:11:10.470Z,81.7
2023-05-01T03:21:10.449Z,83.3
2023-05-01T03:31:10.574Z,84.0
2023-05-01T03:41:10.638Z,83.9
2023-05-01T03:51:11.098Z,82.2
2023-05-01T04:01:10.536Z,81.1
2023-05-01T04:11:10.624Z,81.1
2023-05-01T04:21:10.476Z,80.4
2023-05-01T04:31:10.490Z,79.4
2023-05-01T04:41:10.834Z,79.6
2023-05-01T04:51:10.501Z,78.2
2023-05-01T05:01:10.408Z,77.8
2023-05-01T05:11:10.548Z,77.8
2023-05-01T05:21:10.501Z,76.3
2023-05-01T05:31:10.556Z,76.4
2023-05-01T05:41:10.475Z,75.8
2023-05-01T05:51:10.527Z,75.3
2023-05-01T06:01:11.247Z,74.8
2023-05-01T06:11:10.788Z,75.2
2023-05-01T06:21:10.529Z,74.7
2023-05-01T06:31:10.605Z,75.4
2023-05-01T06:41:10.453Z,74.3
2023-05-01T06:51:10.559Z,74.3
2023-05-01T07:01:10.704Z,73.6
2023-05-01T07:11:10.612Z,72.9
2023-05-01T07:21:10.646Z,70.8
2023-05-01T07:31:10.585Z,71.4
2023-05-01T07:41:10.537Z,69.0
2023-05-01T07:51:10.638Z,70.4
2023-05-01T08:01:10.687Z,68.3
2023-05-01T08:11:10.724Z,67.2
2023-05-01T08:21:11.244Z,66.3
2023-05-01T08:31:11.074Z,65.1
2023-05-01T08:41:10.644Z,65.1
2023-05-01T08:51:11.798Z,64.4
2023-05-01T09:01:10.677Z,62.5
2023-05-01T09:11:10.756Z,60.7
2023-05-01T09:21:10.984Z,58.6
2023-05-01T09:31:10.850Z,55.5
2023-05-01T09:41:10.785Z,55.8
2023-05-01T09:51:10.867Z,55.1
2023-05-01T10:01:10.797Z,53.4
2023-05-01T10:11:10.666Z,54.1
2023-05-01T10:21:10.821Z,52.1
2023-05-01T10:31:10.679Z,53.1
2023-05-01T10:41:10.712Z,51.7
2023-05-01T10:51:10.705Z,50.8
2023-05-01T11:01:10.723Z,50.9
2023-05-01T11:11:10.813Z,52.1
2023-05-01T11:21:10.767Z,49.6
2023-05-01T11:31:10.649Z,50.3
2023-05-01T11:41:10.796Z,50.1
2023-05-01T11:51:11.187Z,50.9
2023-05-01T12:01:10.930Z,50.6
2023-05-01T12:11:10.915Z,49.9
2023-05-01T12:21:11.508Z,46.6
2023-05-01T12:31:11.070Z,47.2
2023-05-01T12:41:11.003Z,45.7
2023-05-01T12:51:11.216Z,48.0
2023-05-01T13:01:11.036Z,48.6
2023-05-01T13:11:11.190Z,47.1
2023-05-01T13:21:11.058Z,48.1
2023-05-01T13:31:11.580Z,45.0
2023-05-01T13:41:11.038Z,48.9
2023-05-01T13:51:11.424Z,46.5
2023-05-01T14:01:11.162Z,46.1
2023-05-01T14:11:11.025Z,46.7
2023-05-01T14:21:10.960Z,46.4
2023-05-01T14:31:11.196Z,49.4
2023-05-01T14:41:11.381Z,53.2
2023-05-01T14:51:11.183Z,55.0
2023-05-01T15:01:10.982Z,56.3
2023-05-01T15:11:11.029Z,56.7
2023-05-01T15:21:11.129Z,56.8
2023-05-01T15:31:11.796Z,57.4
2023-05-01T15:41:11.018Z,58.2
2023-05-01T15:51:11.074Z,56.3
2023-05-01T16:01:11.144Z,56.6
2023-05-01T16:11:11.185Z,57.3
2023-05-01T16:21:11.312Z,55.6
2023-05-01T16:31:23.537Z,57.1
2023-05-01T16:41:11.566Z,57.8
2023-05-01T16:51:10.974Z,56.9
2023-05-01T17:01:11.049Z,56.4
2023-05-01T17:11:11.286Z,58.2
2023-05-01T17:21:11.228Z,61.3
2023-05-01T17:31:11.241Z,63.8
2023-05-01T17:41:11.398Z,65.4
2023-05-01T17:51:11.135Z,67.3
2023-05-01T18:01:11.358Z,69.3
2023-05-01T18:11:11.120Z,71.3
2023-05-01T18:21:11.085Z,72.5
2023-05-01T18:31:11.215Z,72.7
2023-05-01T18:41:11.293Z,73.1
2023-05-01T18:51:11.552Z,73.0
2023-05-01T19:01:11.250Z,72.8
2023-05-01T19:11:11.362Z,72.4
2023-05-01T19:21:11.124Z,72.5
2023-05-01T19:31:12.440Z,73.2
2023-05-01T19:41:11.652Z,73.8
2023-05-01T19:51:11.235Z,74.3
2023-05-01T20:01:11.906Z,75.3
2023-05-01T20:11:11.363Z,76.1
2023-05-01T20:21:11.300Z,76.7
2023-05-01T20:31:11.587Z,77.6
2023-05-01T20:41:11.424Z,78.8
2023-05-01T20:51:11.691Z,79.9
2023-05-01T21:01:11.389Z,81.0
2023-05-01T21:11:11.666Z,82.0
2023-05-01T21:21:11.728Z,82.9
2023-05-01T21:31:11.455Z,83.8
2023-05-01T21:41:11.619Z,84.4
2023-05-01T21:51:11.482Z,83.8
2023-05-01T22:01:11.362Z,84.2
2023-05-01T22:11:11.500Z,84.6
2023-05-01T22:21:11.683Z,84.7
2023-05-01T22:31:11.856Z,85.4
2023-05-01T22:41:11.600Z,86.5
2023-05-01T22:51:11.681Z,87.0
2023-05-01T23:01:12.616Z,87.4
2023-05-01T23:11:12.549Z,87.7
2023-05-01T23:21:12.654Z,88.0
2023-05-01T23:31:14.012Z,88.2
2023-05-01T23:41:13.121Z,87.9
2023-05-01T23:51:13.294Z,87.4
